createdAt,value
2023-02-25T00:01:41.805Z,4.10
2023-02-25T00:04:11.167Z,4.10
2023-02-25T00:06:37.888Z,4.10
2023-02-25T00:09:06.426Z,4.10
2023-02-25T00:11:33.000Z,4.10
2023-02-25T00:13:59.608Z,4.10
2023-02-25T00:16:26.520Z,4.20
2023-02-25T00:18:55.240Z,4.10
2023-02-25T00:21:21.884Z,4.10
2023-02-25T00:23:49.784Z,4.20
2023-02-25T00:26:17.925Z,4.10
2023-02-25T00:28:44.580Z,4.10
2023-02-25T00:31:22.571Z,4.10
2023-02-25T00:33:50.357Z,4.10
2023-02-25T00:36:21.195Z,4.00
2023-02-25T00:38:49.783Z,4.10
2023-02-25T00:41:23.579Z,4.00
2023-02-25T00:43:55.958Z,4.10
2023-02-25T00:46:23.973Z,4.10
2023-02-25T00:48:51.639Z,3.90
2023-02-25T00:51:21.628Z,3.90
2023-02-25T00:53:48.683Z,4.00
2023-02-25T00:56:16.606Z,3.90
2023-02-25T00:58:45.247Z,3.90
2023-02-25T01:01:22.409Z,3.90
2023-02-25T01:03:50.493Z,3.90
2023-02-25T01:06:18.070Z,3.90
2023-02-25T01:08:45.294Z,4.00
2023-02-25T01:11:27.921Z,3.90
2023-02-25T01:13:56.773Z,3.90
2023-02-25T01:16:26.947Z,4.00
2023-02-25T01:18:55.677Z,4.00
2023-02-25T01:21:28.954Z,3.90
2023-02-25T01:24:01.577Z,4.10
2023-02-25T01:26:30.074Z,4.00
2023-02-25T01:28:57.085Z,4.00
2023-02-25T01:31:29.080Z,4.00
2023-02-25T01:33:58.886Z,3.90
2023-02-25T01:36:26.930Z,3.90
2023-02-25T01:38:53.537Z,3.80
2023-02-25T01:41:20.470Z,3.90
2023-02-25T01:44:08.274Z,4.00
2023-02-25T01:46:36.445Z,3.90
2023-02-25T01:49:06.359Z,3.80
2023-02-25T01:51:34.187Z,3.90
2023-02-25T01:54:03.396Z,3.90
2023-02-25T01:56:31.609Z,3.80
2023-02-25T01:58:59.422Z,3.80
2023-02-25T02:01:29.203Z,3.90
2023-02-25T02:03:56.502Z,3.80
2023-02-25T02:06:28.563Z,3.80
2023-02-25T02:08:55.533Z,3.90
2023-02-25T02:11:22.189Z,3.90
2023-02-25T02:13:54.253Z,3.90
2023-02-25T02:16:38.745Z,3.80
2023-02-25T02:19:26.545Z,3.70
2023-02-25T02:22:04.610Z,3.80
2023-02-25T02:24:45.183Z,3.70
2023-02-25T02:27:21.400Z,3.70
2023-02-25T02:30:27.652Z,3.70
2023-02-25T02:33:16.659Z,3.70
2023-02-25T02:36:04.822Z,3.70
2023-02-25T02:38:44.224Z,3.80
2023-02-25T02:41:25.619Z,3.70
2023-02-25T02:44:06.545Z,3.70
2023-02-25T02:46:42.760Z,3.60
2023-02-25T02:49:15.274Z,3.50
2023-02-25T02:51:51.367Z,3.40
2023-02-25T02:54:20.592Z,3.30
2023-02-25T02:56:50.761Z,3.30
2023-02-25T02:59:25.761Z,3.30
2023-02-25T03:02:29.272Z,3.30
2023-02-25T03:05:04.557Z,3.20
2023-02-25T03:07:34.183Z,3.20
2023-02-25T03:10:05.114Z,3.20
2023-02-25T03:12:31.821Z,3.10
2023-02-25T03:14:58.648Z,3.00
2023-02-25T03:17:28.078Z,3.00
2023-02-25T03:20:02.759Z,3.00
2023-02-25T03:22:36.573Z,3.00
2023-02-25T03:25:14.855Z,3.00
2023-02-25T03:27:46.636Z,3.00
2023-02-25T03:30:46.513Z,2.90
2023-02-25T03:33:34.677Z,2.90
2023-02-25T03:36:05.778Z,3.00
2023-02-25T03:38:36.693Z,3.00
2023-02-25T03:41:07.162Z,2.90
2023-02-25T03:43:40.274Z,2.90
2023-02-25T03:46:07.833Z,2.90
2023-02-25T03:48:37.498Z,2.90
2023-02-25T03:51:06.231Z,3.00
2023-02-25T03:53:35.266Z,2.90
2023-02-25T03:56:07.055Z,2.90
2023-02-25T03:58:35.981Z,2.80
2023-02-25T04:01:07.077Z,2.80
2023-02-25T04:03:33.702Z,2.80
2023-02-25T04:06:00.357Z,2.70
2023-02-25T04:08:27.194Z,2.70
2023-02-25T04:10:53.875Z,2.90
2023-02-25T04:13:20.826Z,2.80
2023-02-25T04:15:49.304Z,2.80
2023-02-25T04:18:16.698Z,2.80
2023-02-25T04:20:43.940Z,2.70
2023-02-25T04:23:16.705Z,2.80
2023-02-25T04:25:43.647Z,2.80
2023-02-25T04:28:11.386Z,2.80
2023-02-25T04:30:38.613Z,2.80
2023-02-25T04:33:05.364Z,2.80
2023-02-25T04:35:32.096Z,2.80
2023-02-25T04:37:59.935Z,2.80
2023-02-25T04:40:26.777Z,2.80
2023-02-25T04:42:53.526Z,2.80
2023-02-25T04:45:26.859Z,2.80
2023-02-25T04:47:58.066Z,2.80
2023-02-25T04:50:25.199Z,2.90
2023-02-25T04:52:52.119Z,3.00
2023-02-25T04:55:18.860Z,2.90
2023-02-25T04:57:45.770Z,3.00
2023-02-25T05:00:16.950Z,2.90
2023-02-25T05:02:43.615Z,2.90
2023-02-25T05:05:10.967Z,3.00
2023-02-25T05:07:38.846Z,2.90
2023-02-25T05:10:06.920Z,2.90
2023-02-25T05:12:33.729Z,2.90
2023-02-25T05:15:00.786Z,2.90
2023-02-25T05:17:27.398Z,2.90
2023-02-25T05:19:54.090Z,2.90
2023-02-25T05:22:20.814Z,3.00
2023-02-25T05:24:47.739Z,3.00
2023-02-25T05:27:14.677Z,3.00
2023-02-25T05:29:41.588Z,3.00
2023-02-25T05:32:08.295Z,3.00
2023-02-25T05:34:35.641Z,2.90
2023-02-25T05:37:02.430Z,2.80
2023-02-25T05:39:29.084Z,2.90
2023-02-25T05:41:55.678Z,3.00
2023-02-25T05:44:22.294Z,2.90
2023-02-25T05:46:48.930Z,3.00
2023-02-25T05:49:15.613Z,3.00
2023-02-25T05:51:42.211Z,3.00
2023-02-25T05:54:09.007Z,2.90
2023-02-25T05:56:35.573Z,2.90
2023-02-25T05:59:02.212Z,3.00
2023-02-25T06:01:29.406Z,3.00
2023-02-25T06:03:58.943Z,2.90
2023-02-25T06:06:29.479Z,3.00
2023-02-25T06:08:56.466Z,2.90
2023-02-25T06:11:25.658Z,2.90
2023-02-25T06:13:53.684Z,2.80
2023-02-25T06:16:20.906Z,2.90
2023-02-25T06:18:48.605Z,2.90
2023-02-25T06:21:15.678Z,2.90
2023-02-25T06:23:43.984Z,2.80
2023-02-25T06:26:12.619Z,2.80
2023-02-25T06:28:39.620Z,2.90
2023-02-25T06:31:10.937Z,2.90
2023-02-25T06:33:38.109Z,2.80
2023-02-25T06:36:05.440Z,2.80
2023-02-25T06:38:33.466Z,2.80
2023-02-25T06:41:00.298Z,2.70
2023-02-25T06:43:26.962Z,2.80
2023-02-25T06:45:54.022Z,2.70
2023-02-25T06:48:20.872Z,2.70
2023-02-25T06:50:47.638Z,2.70
2023-02-25T06:53:14.252Z,2.70
2023-02-25T06:55:40.962Z,2.60
2023-02-25T06:58:07.878Z,2.60
2023-02-25T07:00:34.702Z,2.60
2023-02-25T07:03:03.268Z,2.60
2023-02-25T07:05:29.836Z,2.60
2023-02-25T07:07:56.473Z,2.70
2023-02-25T07:10:23.098Z,2.70
2023-02-25T07:12:49.762Z,2.80
2023-02-25T07:15:16.340Z,2.80
2023-02-25T07:17:43.314Z,2.90
2023-02-25T07:20:10.657Z,2.80
2023-02-25T07:22:37.765Z,2.70
2023-02-25T07:25:04.914Z,2.70
2023-02-25T07:27:31.578Z,2.70
2023-02-25T07:29:58.350Z,2.70
2023-02-25T07:32:25.724Z,2.80
2023-02-25T07:34:52.450Z,2.90
2023-02-25T07:37:19.070Z,2.90
2023-02-25T07:39:47.615Z,2.80
2023-02-25T07:42:14.665Z,2.80
2023-02-25T07:44:41.552Z,2.80
2023-02-25T07:47:08.725Z,2.80
2023-02-25T07:49:35.364Z,2.80
2023-02-25T07:52:02.178Z,2.90
2023-02-25T07:54:28.821Z,2.80
2023-02-25T07:56:55.614Z,2.80
2023-02-25T07:59:23.051Z,2.80
2023-02-25T08:01:49.710Z,2.90
2023-02-25T08:04:16.683Z,2.90
2023-02-25T08:06:43.433Z,2.90
2023-02-25T08:09:12.349Z,2.90
2023-02-25T08:11:40.262Z,2.80
2023-02-25T08:14:07.223Z,2.80
2023-02-25T08:16:34.271Z,2.70
2023-02-25T08:19:01.150Z,2.80
2023-02-25T08:21:27.721Z,2.90
2023-02-25T08:23:54.676Z,2.90
2023-02-25T08:26:22.582Z,2.90
2023-02-25T08:28:50.794Z,3.00
2023-02-25T08:31:18.792Z,3.00
2023-02-25T08:33:52.535Z,3.10
2023-02-25T08:36:23.087Z,3.10
2023-02-25T08:38:55.426Z,3.10
2023-02-25T08:41:24.199Z,3.00
2023-02-25T08:43:54.772Z,3.00
2023-02-25T08:46:27.048Z,3.00
2023-02-25T08:48:54.509Z,2.80
2023-02-25T08:51:24.590Z,2.80
2023-02-25T08:53:52.453Z,2.60
2023-02-25T08:56:19.217Z,2.60
2023-02-25T08:58:45.853Z,2.70
2023-02-25T09:01:15.620Z,2.80
2023-02-25T09:03:53.274Z,2.80
2023-02-25T09:06:22.371Z,2.80
2023-02-25T09:08:49.804Z,2.80
2023-02-25T09:11:17.240Z,2.80
2023-02-25T09:13:43.957Z,2.80
2023-02-25T09:16:11.593Z,2.80
2023-02-25T09:18:38.257Z,3.00
2023-02-25T09:21:05.039Z,2.80
2023-02-25T09:23:31.839Z,2.80
2023-02-25T09:26:05.171Z,2.80
2023-02-25T09:28:31.806Z,3.00
2023-02-25T09:30:58.554Z,3.10
2023-02-25T09:33:26.496Z,3.10
2023-02-25T09:35:53.132Z,3.20
2023-02-25T09:38:20.639Z,3.20
2023-02-25T09:40:48.989Z,3.10
2023-02-25T09:43:18.501Z,3.00
2023-02-25T09:45:47.548Z,3.10
2023-02-25T09:48:20.824Z,3.10
2023-02-25T09:50:51.985Z,3.20
2023-02-25T09:53:33.932Z,3.40
2023-02-25T09:56:02.350Z,3.50
2023-02-25T09:58:41.432Z,3.50
2023-02-25T10:01:11.093Z,3.50
2023-02-25T10:03:59.773Z,3.40
2023-02-25T10:06:44.412Z,3.40
2023-02-25T10:09:33.062Z,3.30
2023-02-25T10:12:20.743Z,3.40
2023-02-25T10:15:00.902Z,3.40
2023-02-25T10:17:50.021Z,3.30
2023-02-25T10:20:43.378Z,3.10
2023-02-25T10:23:37.705Z,3.30
2023-02-25T10:26:20.882Z,3.30
2023-02-25T10:28:53.299Z,3.50
2023-02-25T10:31:22.170Z,3.40
2023-02-25T10:33:51.445Z,3.50
2023-02-25T10:36:25.159Z,3.40
2023-02-25T10:38:53.284Z,3.40
2023-02-25T10:41:22.738Z,3.50
2023-02-25T10:43:50.721Z,3.50
2023-02-25T10:46:34.387Z,3.60
2023-02-25T10:49:16.308Z,3.70
2023-02-25T10:51:58.123Z,3.60
2023-02-25T10:54:25.113Z,3.70
2023-02-25T10:56:53.356Z,4.00
2023-02-25T10:59:37.129Z,4.00
2023-02-25T11:02:19.022Z,4.20
2023-02-25T11:04:46.166Z,4.00
2023-02-25T11:07:34.474Z,4.00
2023-02-25T11:10:21.756Z,3.80
2023-02-25T11:12:59.946Z,3.60
2023-02-25T11:15:41.652Z,3.80
2023-02-25T11:18:21.620Z,4.00
2023-02-25T11:20:54.760Z,4.30
2023-02-25T11:23:28.339Z,4.30
2023-02-25T11:25:55.475Z,4.30
2023-02-25T11:28:32.980Z,4.40
2023-02-25T11:31:19.277Z,4.60
2023-02-25T11:33:53.069Z,4.40
2023-02-25T11:36:25.478Z,4.30
2023-02-25T11:39:06.272Z,4.20
2023-02-25T11:41:33.071Z,4.10
2023-02-25T11:44:20.339Z,4.40
2023-02-25T11:47:14.407Z,4.40
2023-02-25T11:49:42.584Z,4.20
2023-02-25T11:52:13.694Z,4.20
2023-02-25T11:55:02.253Z,4.30
2023-02-25T11:57:43.648Z,4.60
2023-02-25T12:00:28.414Z,4.70
2023-02-25T12:03:14.447Z,4.70
2023-02-25T12:05:52.471Z,4.50
2023-02-25T12:08:40.263Z,4.30
2023-02-25T12:11:24.142Z,4.10
2023-02-25T12:14:38.945Z,4.10
2023-02-25T12:17:20.949Z,4.40
2023-02-25T12:20:05.449Z,4.60
2023-02-25T12:23:01.359Z,4.40
2023-02-25T12:25:30.807Z,4.60
2023-02-25T12:28:26.331Z,4.70
2023-02-25T12:31:09.860Z,4.90
2023-02-25T12:33:52.832Z,4.50
2023-02-25T12:36:41.295Z,4.50
2023-02-25T12:39:34.115Z,4.60
2023-02-25T12:42:57.832Z,4.60
2023-02-25T12:45:32.905Z,4.60
2023-02-25T12:48:20.898Z,4.70
2023-02-25T12:50:53.277Z,4.60
2023-02-25T12:54:10.396Z,4.80
2023-02-25T12:57:13.826Z,4.70
2023-02-25T13:00:13.563Z,5.10
2023-02-25T13:02:49.943Z,5.50
2023-02-25T13:05:35.022Z,5.50
2023-02-25T13:08:04.463Z,5.40
2023-02-25T13:10:46.277Z,5.00
2023-02-25T13:13:25.071Z,5.10
2023-02-25T13:16:12.572Z,5.10
2023-02-25T13:18:51.998Z,5.40
2023-02-25T13:21:27.901Z,5.50
2023-02-25T13:24:08.320Z,5.50
2023-02-25T13:27:12.191Z,5.30
2023-02-25T13:29:52.639Z,5.30
2023-02-25T13:32:53.505Z,5.20
2023-02-25T13:35:43.108Z,5.30
2023-02-25T13:38:59.269Z,5.40
2023-02-25T13:41:47.986Z,5.50
2023-02-25T13:44:54.667Z,5.50
2023-02-25T13:47:50.108Z,5.70
2023-02-25T13:50:48.673Z,5.70
2023-02-25T13:53:34.824Z,5.60
2023-02-25T13:56:22.526Z,5.50
2023-02-25T13:59:12.289Z,5.60
2023-02-25T14:02:00.583Z,5.60
2023-02-25T14:04:36.122Z,5.40
2023-02-25T14:07:30.971Z,5.20
2023-02-25T14:10:12.570Z,4.90
2023-02-25T14:13:24.421Z,4.90
2023-02-25T14:16:07.498Z,5.30
2023-02-25T14:19:15.462Z,5.50
2023-02-25T14:21:54.652Z,5.50
2023-02-25T14:24:35.090Z,5.70
2023-02-25T14:27:11.312Z,5.50
2023-02-25T14:29:43.060Z,5.30
2023-02-25T14:32:21.852Z,5.20
2023-02-25T14:35:07.309Z,5.50
2023-02-25T14:37:57.705Z,5.50
2023-02-25T14:40:30.027Z,5.50
2023-02-25T14:43:17.392Z,5.60
2023-02-25T14:45:51.292Z,5.70
2023-02-25T14:48:36.079Z,5.50
2023-02-25T14:51:31.671Z,5.10
2023-02-25T14:54:29.398Z,5.00
2023-02-25T14:57:33.653Z,4.90
2023-02-25T15:00:28.396Z,4.80
2023-02-25T15:03:32.987Z,4.90
2023-02-25T15:06:19.833Z,5.10
2023-02-25T15:08:46.319Z,5.10
2023-02-25T15:11:39.012Z,4.80
2023-02-25T15:14:45.547Z,4.70
2023-02-25T15:17:43.936Z,4.90
2023-02-25T15:20:31.598Z,4.90
2023-02-25T15:23:11.853Z,4.60
2023-02-25T15:25:39.960Z,4.60
2023-02-25T15:28:31.231Z,4.40
2023-02-25T15:31:01.198Z,4.20
2023-02-25T15:33:41.360Z,4.20
2023-02-25T15:36:14.148Z,4.10
2023-02-25T15:38:45.175Z,4.30
2023-02-25T15:41:26.752Z,4.40
2023-02-25T15:43:57.137Z,4.50
2023-02-25T15:46:39.014Z,4.40
2023-02-25T15:49:17.911Z,4.60
2023-02-25T15:51:49.132Z,4.60
2023-02-25T15:54:28.574Z,4.60
2023-02-25T15:57:08.278Z,4.70
2023-02-25T15:59:44.150Z,4.80
2023-02-25T16:02:28.918Z,4.70
2023-02-25T16:05:09.961Z,4.60
2023-02-25T16:07:40.398Z,4.70
2023-02-25T16:10:18.297Z,4.60
2023-02-25T16:12:49.351Z,4.60
2023-02-25T16:15:27.365Z,4.40
2023-02-25T16:17:56.346Z,4.40
2023-02-25T16:20:33.597Z,4.30
2023-02-25T16:23:00.795Z,4.20
2023-02-25T16:25:43.070Z,4.30
2023-02-25T16:28:22.962Z,4.30
2023-02-25T16:31:10.205Z,4.30
2023-02-25T16:34:13.616Z,4.40
2023-02-25T16:36:56.693Z,4.30
2023-02-25T16:39:27.780Z,4.10
2023-02-25T16:41:55.558Z,4.00
2023-02-25T16:44:28.762Z,4.00
2023-02-25T16:46:55.786Z,4.00
2023-02-25T16:49:37.973Z,4.10
2023-02-25T16:52:07.156Z,4.10
2023-02-25T16:54:38.296Z,4.10
2023-02-25T16:57:07.948Z,4.20
2023-02-25T16:59:36.987Z,4.00
2023-02-25T17:02:25.074Z,3.90
2023-02-25T17:04:55.995Z,3.60
2023-02-25T17:07:27.788Z,3.60
2023-02-25T17:10:00.721Z,3.50
2023-02-25T17:12:32.414Z,3.50
2023-02-25T17:15:03.125Z,3.50
2023-02-25T17:17:35.569Z,3.60
2023-02-25T17:20:05.827Z,3.60
2023-02-25T17:22:33.642Z,3.60
2023-02-25T17:25:02.056Z,3.60
2023-02-25T17:27:28.787Z,3.60
2023-02-25T17:29:57.833Z,3.50
2023-02-25T17:32:31.191Z,3.50
2023-02-25T17:35:01.798Z,3.50
2023-02-25T17:37:30.945Z,3.40
2023-02-25T17:39:59.170Z,3.30
2023-02-25T17:42:41.544Z,3.40
2023-02-25T17:45:41.675Z,3.30
2023-02-25T17:48:24.096Z,3.20
2023-02-25T17:51:08.348Z,3.10
2023-02-25T17:53:39.242Z,3.00
2023-02-25T17:56:10.241Z,2.90
2023-02-25T17:58:36.879Z,2.90
2023-02-25T18:01:05.355Z,2.80
2023-02-25T18:03:44.477Z,2.80
2023-02-25T18:06:39.239Z,2.80
2023-02-25T18:09:07.052Z,2.70
2023-02-25T18:11:35.936Z,2.70
2023-02-25T18:14:22.780Z,2.50
2023-02-25T18:16:52.601Z,2.50
2023-02-25T18:19:31.037Z,2.50
2023-02-25T18:21:57.998Z,2.50
2023-02-25T18:24:34.717Z,2.50
2023-02-25T18:27:15.262Z,2.40
2023-02-25T18:29:41.906Z,2.40
2023-02-25T18:32:08.575Z,2.40
2023-02-25T18:34:35.230Z,2.40
2023-02-25T18:37:02.412Z,2.50
2023-02-25T18:39:29.115Z,2.50
2023-02-25T18:41:55.992Z,2.50
2023-02-25T18:44:22.849Z,2.40
2023-02-25T18:46:49.661Z,2.60
2023-02-25T18:49:16.519Z,2.60
2023-02-25T18:51:43.154Z,2.50
2023-02-25T18:54:16.244Z,2.60
2023-02-25T18:56:43.138Z,2.60
2023-02-25T18:59:09.933Z,2.60
2023-02-25T19:01:37.583Z,2.60
2023-02-25T19:04:05.802Z,2.50
2023-02-25T19:06:33.807Z,2.40
2023-02-25T19:09:04.429Z,2.40
2023-02-25T19:11:35.921Z,2.30
2023-02-25T19:14:03.758Z,2.10
2023-02-25T19:16:30.810Z,2.10
2023-02-25T19:18:58.029Z,2.10
2023-02-25T19:21:24.804Z,2.10
2023-02-25T19:23:52.544Z,2.10
2023-02-25T19:26:19.897Z,2.10
2023-02-25T19:28:46.517Z,2.10
2023-02-25T19:31:13.339Z,2.10
2023-02-25T19:33:40.502Z,2.10
2023-02-25T19:36:08.623Z,2.00
2023-02-25T19:38:35.418Z,2.00
2023-02-25T19:41:04.995Z,1.90
2023-02-25T19:43:32.747Z,2.00
2023-02-25T19:45:59.624Z,2.00
2023-02-25T19:48:26.182Z,2.00
2023-02-25T19:50:52.799Z,1.90
2023-02-25T19:53:19.429Z,1.90
2023-02-25T19:55:46.079Z,1.80
2023-02-25T19:58:12.699Z,1.80
2023-02-25T20:00:45.648Z,1.80
2023-02-25T20:03:12.825Z,1.90
2023-02-25T20:05:40.087Z,1.50
2023-02-25T20:08:06.658Z,1.30
2023-02-25T20:10:33.389Z,1.30
2023-02-25T20:13:00.193Z,1.20
2023-02-25T20:15:26.784Z,1.00
2023-02-25T20:17:54.916Z,1.00
2023-02-25T20:20:22.870Z,1.00
2023-02-25T20:22:49.607Z,1.10
2023-02-25T20:25:16.257Z,1.10
2023-02-25T20:27:43.523Z,1.10
2023-02-25T20:30:15.787Z,1.10
2023-02-25T20:32:43.948Z,1.20
2023-02-25T20:35:17.925Z,1.30
2023-02-25T20:38:11.617Z,1.20
2023-02-25T20:40:38.251Z,1.20
2023-02-25T20:43:05.010Z,1.10
2023-02-25T20:45:33.925Z,1.10
2023-02-25T20:48:00.721Z,1.20
2023-02-25T20:50:28.697Z,1.20
2023-02-25T20:52:55.854Z,1.10
2023-02-25T20:55:22.519Z,1.00
2023-02-25T20:57:49.253Z,1.00
2023-02-25T21:00:16.685Z,1.00
2023-02-25T21:02:43.276Z,1.00
2023-02-25T21:05:09.903Z,1.00
2023-02-25T21:07:36.488Z,1.10
2023-02-25T21:10:03.232Z,1.20
2023-02-25T21:12:29.932Z,1.40
2023-02-25T21:14:56.522Z,1.30
2023-02-25T21:17:23.374Z,1.40
2023-02-25T21:19:49.974Z,1.50
2023-02-25T21:22:16.745Z,1.50
2023-02-25T21:24:43.324Z,1.50
2023-02-25T21:27:10.490Z,1.60
2023-02-25T21:29:37.152Z,1.60
2023-02-25T21:32:03.841Z,1.40
2023-02-25T21:34:30.754Z,1.20
2023-02-25T21:36:58.415Z,1.10
2023-02-25T21:39:27.227Z,1.10
2023-02-25T21:41:54.007Z,1.20
2023-02-25T21:44:20.626Z,1.10
2023-02-25T21:46:47.260Z,0.90
2023-02-25T21:49:14.305Z,0.90
2023-02-25T21:51:40.914Z,1.00
2023-02-25T21:54:08.584Z,1.00
2023-02-25T21:56:35.415Z,1.00
2023-02-25T21:59:05.299Z,0.90
2023-02-25T22:01:34.895Z,0.80
2023-02-25T22:04:04.541Z,0.80
2023-02-25T22:06:31.676Z,0.80
2023-02-25T22:08:58.600Z,0.90
2023-02-25T22:11:29.130Z,0.90
2023-02-25T22:13:55.992Z,0.90
2023-02-25T22:16:23.751Z,0.90
2023-02-25T22:18:51.882Z,0.80
2023-02-25T22:21:24.753Z,0.80
2023-02-25T22:23:53.502Z,0.90
2023-02-25T22:26:22.761Z,0.90
2023-02-25T22:28:56.750Z,0.90
2023-02-25T22:31:24.356Z,0.80
2023-02-25T22:33:51.560Z,0.80
2023-02-25T22:36:19.301Z,0.80
2023-02-25T22:38:47.302Z,0.70
2023-02-25T22:41:17.410Z,0.60
2023-02-25T22:43:44.445Z,0.60
2023-02-25T22:46:17.277Z,0.50
2023-02-25T22:48:45.919Z,0.50
2023-02-25T22:51:13.914Z,0.50
2023-02-25T22:53:41.043Z,0.50
2023-02-25T22:56:09.950Z,0.60
2023-02-25T22:58:38.976Z,0.60
2023-02-25T23:01:09.837Z,0.70
2023-02-25T23:03:36.645Z,0.70
2023-02-25T23:06:03.648Z,0.70
2023-02-25T23:08:30.752Z,0.60
2023-02-25T23:11:14.561Z,0.50
2023-02-25T23:13:46.125Z,0.50
2023-02-25T23:16:15.126Z,0.50
2023-02-25T23:18:42.505Z,0.40
2023-02-25T23:21:15.643Z,0.50
2023-02-25T23:23:43.372Z,0.60
2023-02-25T23:26:13.420Z,0.50
2023-02-25T23:28:40.959Z,0.60
2023-02-25T23:31:08.304Z,0.60
2023-02-25T23:33:34.947Z,0.60
2023-02-25T23:36:05.027Z,0.60
2023-02-25T23:38:31.570Z,0.60
2023-02-25T23:40:59.584Z,0.70
2023-02-25T23:43:26.401Z,0.70
2023-02-25T23:45:53.271Z,0.70
2023-02-25T23:48:19.893Z,0.70
2023-02-25T23:50:46.525Z,0.70
2023-02-25T23:53:13.416Z,0.70
2023-02-25T23:55:40.231Z,0.70
2023-02-25T23:58:07.051Z,0.70
